Time;durP1;ratioP1;P1;durP2;ratioP2;P2;SDS_P1;SDS_P2;PMS_P1;PMS_P2;Temp;Humidity;BMP_temperature;BMP_pressure;BME280_temperature;BME280_humidity;BME280_pressure;Samples;Min_cycle;Max_cycle;Signal;HPM_P1;HPM_P2
2023/04/24 04:12:57;;;;;;;24.23;18.83;;;;;;;10.16;100.00;99418.28;5563941;32;176703;-86
2023/04/24 04:16:01;;;;;;;27.08;19.42;;;;;;;10.11;100.00;99426.53;5546359;32;33599;-87
2023/04/24 04:19:05;;;;;;;24.27;19.27;;;;;;;10.15;100.00;99423.69;5547000;32;33836;-87
2023/04/24 04:22:08;;;;;;;24.63;17.12;;;;;;;10.17;100.00;99420.00;5545388;32;33828;-86
2023/04/24 04:25:13;;;;;;;24.52;18.83;;;;;;;10.23;100.00;99422.25;5545014;32;34390;-86
2023/04/24 04:28:19;;;;;;;25.67;18.42;;;;;;;10.33;100.00;99424.31;5535751;32;33800;-86
2023/04/24 04:31:23;;;;;;;24.90;16.85;;;;;;;10.44;100.00;99424.50;5543886;32;33377;-86
2023/04/24 04:34:26;;;;;;;23.17;17.40;;;;;;;10.56;100.00;99428.16;5546646;32;33739;-86
2023/04/24 04:37:33;;;;;;;20.73;16.77;;;;;;;10.68;100.00;99421.22;5545600;32;33920;-87
2023/04/24 04:40:37;;;;;;;21.87;16.62;;;;;;;10.85;100.00;99414.78;5547364;32;33578;-86
2023/04/24 04:43:40;;;;;;;19.92;16.98;;;;;;;10.84;100.00;99409.56;5549885;32;34181;-85
2023/04/24 04:46:44;;;;;;;20.58;17.35;;;;;;;10.89;100.00;99413.63;5554306;32;34178;-86
2023/04/24 04:49:46;;;;;;;19.95;17.23;;;;;;;10.98;100.00;99416.63;5551764;32;33727;-85
2023/04/24 04:52:50;;;;;;;22.10;17.58;;;;;;;11.03;100.00;99410.03;5551215;32;34580;-86
2023/04/24 04:55:53;;;;;;;20.80;17.30;;;;;;;11.08;100.00;99411.53;5548769;32;33650;-86
2023/04/24 04:58:57;;;;;;;22.65;17.33;;;;;;;11.19;100.00;99417.84;5546015;32;33827;-86
2023/04/24 05:02:00;;;;;;;22.00;16.67;;;;;;;11.16;100.00;99409.22;5545306;32;33851;-86
2023/04/24 05:05:07;;;;;;;21.23;17.05;;;;;;;11.26;100.00;99404.16;5546520;32;34725;-86
2023/04/24 05:08:09;;;;;;;22.58;17.33;;;;;;;11.29;100.00;99407.44;5545811;32;34537;-86
2023/04/24 05:11:27;;;;;;;19.25;16.23;;;;;;;11.24;100.00;99401.59;5538868;32;33826;-85
2023/04/24 05:14:31;;;;;;;29.17;16.90;;;;;;;11.30;100.00;99405.63;5546302;32;34060;-86
2023/04/24 05:17:34;;;;;;;20.67;16.80;;;;;;;11.30;100.00;99402.97;5547271;32;33924;-86
2023/04/24 05:20:37;;;;;;;25.60;16.55;;;;;;;11.35;100.00;99405.34;5543666;32;34034;-86
2023/04/24 05:23:40;;;;;;;20.73;16.15;;;;;;;11.46;100.00;99405.41;5533683;32;33991;-86
2023/04/24 05:26:42;;;;;;;22.20;16.33;;;;;;;11.58;100.00;99403.72;5525566;32;34550;-90
2023/04/24 05:29:45;;;;;;;18.62;15.68;;;;;;;11.67;100.00;99407.56;5531463;32;33611;-91
2023/04/24 05:32:48;;;;;;;20.50;15.85;;;;;;;11.86;100.00;99405.28;5530748;32;34473;-91
2023/04/24 05:35:51;;;;;;;18.70;16.62;;;;;;;12.25;100.00;99405.25;5527062;32;35427;-91
2023/04/24 05:38:55;;;;;;;22.40;15.63;;;;;;;12.74;100.00;99407.06;5531704;32;34467;-87
2023/04/24 05:41:58;;;;;;;25.98;16.05;;;;;;;12.92;100.00;99399.50;5530348;32;33862;-86
2023/04/24 05:45:01;;;;;;;18.42;14.43;;;;;;;12.87;100.00;99409.69;5527604;32;32519;-86
2023/04/24 05:48:04;;;;;;;17.52;14.07;;;;;;;12.90;100.00;99423.59;5542911;32;34577;-86
2023/04/24 05:51:07;;;;;;;20.12;14.07;;;;;;;12.84;100.00;99412.53;5535289;32;34027;-86
2023/04/24 05:54:12;;;;;;;16.30;13.35;;;;;;;12.78;100.00;99412.03;5534981;32;33918;-86
2023/04/24 05:57:14;;;;;;;19.33;13.35;;;;;;;12.88;100.00;99412.19;5534707;32;34067;-86
2023/04/24 06:00:21;;;;;;;19.45;13.90;;;;;;;12.76;100.00;99419.28;5532568;32;34402;-86
2023/04/24 06:03:24;;;;;;;15.77;13.35;;;;;;;12.85;100.00;99419.56;5529069;32;34375;-86
2023/04/24 06:06:28;;;;;;;17.15;13.02;;;;;;;12.99;100.00;99407.88;5547448;32;34039;-86
2023/04/24 06:09:31;;;;;;;17.87;12.95;;;;;;;12.87;100.00;99412.34;5527435;32;32892;-86
2023/04/24 06:12:35;;;;;;;18.33;12.75;;;;;;;13.14;100.00;99422.72;5531811;32;33941;-86
2023/04/24 06:15:39;;;;;;;17.75;12.48;;;;;;;13.32;100.00;99415.13;5536742;32;33923;-86
2023/04/24 06:18:42;;;;;;;15.82;11.70;;;;;;;13.67;100.00;99412.56;5539444;32;34194;-87
2023/04/24 06:21:45;;;;;;;14.32;11.98;;;;;;;14.33;100.00;99418.94;5534260;32;34635;-85
2023/04/24 06:24:48;;;;;;;15.95;12.30;;;;;;;14.63;100.00;99415.56;5535337;32;34265;-87
2023/04/24 06:27:51;;;;;;;18.12;12.30;;;;;;;14.55;100.00;99420.69;5535042;32;34614;-86
2023/04/24 06:30:53;;;;;;;15.52;11.85;;;;;;;14.88;100.00;99426.09;5535311;32;34690;-86
2023/04/24 06:33:56;;;;;;;13.75;11.45;;;;;;;15.30;100.00;99418.12;5548965;32;34261;-86
2023/04/24 06:37:00;;;;;;;18.75;12.32;;;;;;;15.37;100.00;99418.41;5533552;32;34004;-86
2023/04/24 06:40:03;;;;;;;17.05;12.90;;;;;;;15.03;100.00;99416.78;5530520;32;34000;-85
2023/04/24 06:43:09;;;;;;;16.23;12.02;;;;;;;14.68;100.00;99413.38;5526914;32;33886;-87
2023/04/24 06:46:12;;;;;;;16.00;12.75;;;;;;;14.08;100.00;99411.06;5533879;32;34087;-87
2023/04/24 06:49:15;;;;;;;16.30;12.80;;;;;;;13.84;100.00;99405.87;5532694;32;33750;-87
2023/04/24 06:52:19;;;;;;;15.80;12.32;;;;;;;13.78;100.00;99407.19;5530266;32;33720;-86
2023/04/24 06:55:22;;;;;;;16.20;11.57;;;;;;;13.84;100.00;99409.38;5530645;32;33876;-86
2023/04/24 06:58:25;;;;;;;18.50;12.40;;;;;;;13.85;100.00;99408.44;5525234;32;34604;-87
2023/04/24 07:01:28;;;;;;;17.90;12.70;;;;;;;13.99;100.00;99412.66;5525355;32;33915;-87
2023/04/24 07:04:31;;;;;;;14.75;12.48;;;;;;;14.03;100.00;99410.59;5527838;32;34342;-86
2023/04/24 07:07:34;;;;;;;15.60;12.25;;;;;;;14.24;100.00;99417.84;5529966;32;34754;-85
2023/04/24 07:10:37;;;;;;;17.40;12.65;;;;;;;14.36;100.00;99416.00;5528392;32;34192;-86
2023/04/24 07:13:41;;;;;;;18.73;12.65;;;;;;;14.35;100.00;99408.97;5529246;32;34891;-88
2023/04/24 07:16:45;;;;;;;16.75;11.80;;;;;;;14.08;100.00;99415.56;5529452;32;34767;-86
2023/04/24 07:19:47;;;;;;;15.30;11.73;;;;;;;14.21;100.00;99413.63;5523710;32;34334;-86
2023/04/24 07:22:51;;;;;;;17.40;11.70;;;;;;;13.96;100.00;99406.72;5530268;32;33750;-86
2023/04/24 07:25:54;;;;;;;16.17;12.07;;;;;;;14.24;100.00;99408.00;5537039;32;33812;-85
2023/04/24 07:28:57;;;;;;;17.85;12.95;;;;;;;14.23;100.00;99403.66;5527431;32;33985;-86
2023/04/24 07:31:59;;;;;;;18.15;11.73;;;;;;;14.74;100.00;99406.69;5533423;32;32422;-85
2023/04/24 07:35:06;;;;;;;14.35;12.55;;;;;;;14.78;100.00;99407.31;5538996;31;33435;-85
2023/04/24 07:38:09;;;;;;;14.87;12.52;;;;;;;14.52;100.00;99412.94;5529135;32;35124;-85
2023/04/24 07:41:13;;;;;;;18.55;11.88;;;;;;;14.44;100.00;99408.25;5527211;32;33755;-87
2023/04/24 07:44:16;;;;;;;13.90;11.63;;;;;;;14.97;100.00;99408.44;5536431;32;33683;-90
2023/04/24 07:47:19;;;;;;;13.98;11.43;;;;;;;15.29;100.00;99403.03;5522676;32;33464;-90
2023/04/24 07:50:21;;;;;;;14.60;12.35;;;;;;;14.93;100.00;99399.81;5538643;32;35111;-92
2023/04/24 07:53:25;;;;;;;13.25;11.63;;;;;;;15.21;100.00;99400.19;5532628;32;33397;-88
2023/04/24 07:56:30;;;;;;;17.83;11.55;;;;;;;15.06;100.00;99396.97;5533263;32;33083;-88
2023/04/24 07:59:34;;;;;;;16.02;11.73;;;;;;;15.99;100.00;99394.41;5531555;32;33808;-86
2023/04/24 08:02:37;;;;;;;15.30;11.43;;;;;;;16.29;96.71;99411.38;5528016;32;34300;-87
2023/04/24 08:05:41;;;;;;;15.38;10.75;;;;;;;16.84;95.35;99406.50;5520623;32;33846;-87
2023/04/24 08:08:44;;;;;;;15.38;11.60;;;;;;;17.28;93.53;99392.69;5528647;32;33552;-87
2023/04/24 08:11:47;;;;;;;16.33;11.73;;;;;;;16.56;95.05;99404.53;5529029;32;34095;-88
2023/04/24 08:14:49;;;;;;;15.10;11.55;;;;;;;16.54;96.64;99408.31;5534341;32;34593;-87
2023/04/24 08:17:52;;;;;;;13.43;10.70;;;;;;;17.70;91.90;99407.53;5530243;32;34347;-87
2023/04/24 08:20:56;;;;;;;14.05;11.02;;;;;;;17.86;90.70;99400.72;5540900;31;33656;-87
2023/04/24 08:27:37;;;;;;;13.48;11.35;;;;;;;18.44;90.91;99396.03;5418309;26;20398;-88
2023/04/24 08:30:40;;;;;;;15.05;11.77;;;;;;;18.20;90.65;99394.75;5551856;32;33466;-88
2023/04/24 08:33:44;;;;;;;16.48;11.48;;;;;;;17.85;90.40;99404.38;5542438;32;34126;-89
2023/04/24 08:36:48;;;;;;;15.88;11.32;;;;;;;18.12;92.22;99398.22;5542791;32;34295;-87
2023/04/24 08:39:50;;;;;;;20.88;11.88;;;;;;;18.12;89.26;99405.41;5545640;32;33472;-87
2023/04/24 08:42:56;;;;;;;13.68;11.38;;;;;;;17.79;91.71;99403.12;5544854;32;33963;-87
2023/04/24 08:46:00;;;;;;;13.95;11.52;;;;;;;17.77;91.83;99402.44;5551010;32;33959;-88
2023/04/24 08:49:04;;;;;;;13.00;11.65;;;;;;;17.73;90.44;99396.53;5547217;32;33679;-87
2023/04/24 08:52:07;;;;;;;15.38;10.02;;;;;;;17.60;89.72;99399.53;5540655;32;34609;-86
2023/04/24 08:55:11;;;;;;;14.10;10.40;;;;;;;18.07;89.69;99400.50;5545317;32;33782;-86
2023/04/24 08:58:20;;;;;;;14.87;11.35;;;;;;;18.00;86.71;99402.06;5549178;32;33747;-86
2023/04/24 09:01:27;;;;;;;11.82;10.63;;;;;;;18.20;84.02;99407.34;5549099;32;33101;-87
2023/04/24 09:04:34;;;;;;;12.23;10.07;;;;;;;18.63;83.50;99392.38;5552753;32;34722;-87
2023/04/24 09:07:44;;;;;;;15.82;11.00;;;;;;;18.94;81.08;99386.59;5554151;32;33781;-89
2023/04/24 09:10:49;;;;;;;13.52;10.43;;;;;;;18.58;80.81;99392.00;5544342;32;33730;-85
2023/04/24 09:13:56;;;;;;;12.25;10.70;;;;;;;18.16;84.46;99385.34;5552174;32;34061;-88
2023/04/24 09:17:01;;;;;;;13.98;10.52;;;;;;;18.83;81.70;99379.66;5553333;32;34020;-90
2023/04/24 09:20:07;;;;;;;11.82;9.55;;;;;;;19.78;77.05;99382.66;5553154;32;36412;-87
2023/04/24 09:23:17;;;;;;;12.90;10.43;;;;;;;20.45;72.86;99381.91;5556354;32;33920;-86
2023/04/24 09:26:22;;;;;;;13.50;11.07;;;;;;;20.49;70.97;99376.16;5559433;32;34817;-85
2023/04/24 09:29:25;;;;;;;12.20;9.90;;;;;;;20.36;72.53;99366.72;5539368;32;35244;-86
2023/04/24 09:32:31;;;;;;;12.23;8.43;;;;;;;20.24;76.07;99371.56;5539986;32;33571;-85
2023/04/24 09:35:36;;;;;;;12.52;7.78;;;;;;;19.89;70.54;99360.84;5538470;32;34010;-85
2023/04/24 09:38:40;;;;;;;10.55;7.20;;;;;;;20.45;67.20;99354.97;5555729;32;34746;-86
2023/04/24 09:41:47;;;;;;;10.90;7.32;;;;;;;20.60;65.32;99355.16;5559696;32;36080;-86
2023/04/24 09:44:53;;;;;;;8.15;6.62;;;;;;;19.78;65.24;99353.87;5548650;32;34098;-85
2023/04/24 09:48:10;;;;;;;12.20;7.37;;;;;;;20.25;63.51;99358.94;5560675;32;35196;-85
2023/04/24 09:51:15;;;;;;;10.70;7.40;;;;;;;20.48;63.67;99351.09;5559636;32;32793;-85
2023/04/24 09:54:21;;;;;;;11.60;8.18;;;;;;;20.95;63.06;99346.06;5559935;32;34879;-84
2023/04/24 09:57:26;;;;;;;15.93;8.50;;;;;;;20.43;63.27;99348.88;5558926;32;33647;-84
2023/04/24 10:00:32;;;;;;;9.55;7.00;;;;;;;19.92;66.17;99352.41;5559400;32;33716;-84
2023/04/24 10:03:48;;;;;;;8.45;7.12;;;;;;;20.61;60.37;99339.81;5558006;32;36525;-84
2023/04/24 10:06:57;;;;;;;10.48;7.43;;;;;;;21.39;57.38;99337.59;5556413;32;33977;-85
2023/04/24 10:10:01;;;;;;;13.30;7.53;;;;;;;21.51;58.70;99331.81;5555592;32;34175;-83
2023/04/24 10:13:09;;;;;;;8.10;6.32;;;;;;;20.76;58.95;99345.37;5552648;32;35023;-85
2023/04/24 10:16:14;;;;;;;7.32;6.10;;;;;;;20.37;59.37;99344.16;5556983;32;33918;-85
2023/04/24 10:19:19;;;;;;;10.00;6.30;;;;;;;20.41;58.82;99345.53;5568313;31;34962;-85
2023/04/24 10:22:24;;;;;;;7.57;6.30;;;;;;;20.20;59.98;99345.97;5558550;32;33440;-85
2023/04/24 10:25:31;;;;;;;11.65;6.43;;;;;;;20.79;60.27;99339.66;5555903;32;33819;-85
2023/04/24 10:28:41;;;;;;;9.93;7.05;;;;;;;20.94;58.07;99336.31;5556090;32;34176;-88
2023/04/24 10:31:47;;;;;;;13.18;7.15;;;;;;;19.95;61.75;99339.66;5548234;32;33800;-88
2023/04/24 10:34:56;;;;;;;11.85;8.00;;;;;;;20.24;61.73;99335.72;5555432;32;34994;-85
2023/04/24 10:38:09;;;;;;;10.82;7.90;;;;;;;20.52;59.66;99330.06;5553858;32;34527;-86
2023/04/24 10:41:19;;;;;;;11.88;7.80;;;;;;;20.54;58.91;99328.03;5551262;32;34070;-87
2023/04/24 10:44:35;;;;;;;11.05;7.20;;;;;;;21.14;57.80;99326.84;5548150;32;34131;-86
2023/04/24 10:47:42;;;;;;;8.38;7.28;;;;;;;20.53;57.51;99332.59;5556915;32;33875;-86
2023/04/24 10:50:53;;;;;;;10.80;7.95;;;;;;;19.22;60.70;99326.53;5548264;32;33795;-86
2023/04/24 10:53:58;;;;;;;11.07;8.20;;;;;;;19.05;63.09;99321.03;5553492;32;34168;-84
2023/04/24 10:57:24;;;;;;;12.00;8.70;;;;;;;18.67;65.21;99320.41;5567775;32;33959;-85
2023/04/24 11:00:28;;;;;;;10.77;8.52;;;;;;;18.41;66.45;99319.31;5562187;32;33583;-85
2023/04/24 11:03:34;;;;;;;12.30;9.30;;;;;;;18.45;66.71;99326.09;5564235;32;34130;-84
2023/04/24 11:06:40;;;;;;;12.95;10.13;;;;;;;18.43;66.67;99321.84;5560563;32;34938;-84
2023/04/24 11:09:44;;;;;;;12.32;9.55;;;;;;;18.24;67.74;99320.16;5560297;32;33993;-84
2023/04/24 11:12:50;;;;;;;15.82;10.07;;;;;;;18.30;68.02;99319.53;5557051;32;34107;-86
2023/04/24 11:16:20;;;;;;;14.77;10.93;;;;;;;18.07;70.62;99309.28;5554618;32;34408;-86
2023/04/24 11:19:26;;;;;;;13.73;10.17;;;;;;;18.23;70.22;99323.84;5557134;32;34408;-86
2023/04/24 11:22:35;;;;;;;19.10;11.00;;;;;;;17.99;70.97;99309.13;5563220;32;35396;-91
2023/04/24 11:25:41;;;;;;;12.18;10.07;;;;;;;18.32;70.53;99310.34;5558921;32;33908;-86
2023/04/24 11:28:48;;;;;;;12.02;9.75;;;;;;;18.69;69.62;99307.66;5553735;32;34076;-87
2023/04/24 11:31:51;;;;;;;16.17;10.80;;;;;;;19.02;66.90;99305.22;5556982;32;34201;-88
2023/04/24 11:35:00;;;;;;;13.35;9.57;;;;;;;19.13;66.09;99301.44;5559739;32;33746;-87
2023/04/24 11:38:07;;;;;;;12.00;9.68;;;;;;;19.58;66.47;99299.50;5556012;32;33508;-86
2023/04/24 11:41:27;;;;;;;11.38;9.85;;;;;;;19.46;65.91;99296.25;5551437;32;33938;-86
2023/04/24 11:44:34;;;;;;;11.18;10.07;;;;;;;19.24;65.51;99295.81;5563845;32;34602;-87
2023/04/24 11:47:38;;;;;;;12.50;10.13;;;;;;;19.19;65.41;99292.75;5557568;32;34763;-87
2023/04/24 11:50:46;;;;;;;13.62;9.98;;;;;;;19.19;66.05;99287.38;5550105;32;33742;-87
2023/04/24 11:53:51;;;;;;;14.43;10.60;;;;;;;19.13;66.62;99288.84;5550334;32;34682;-87
2023/04/24 11:57:07;;;;;;;14.07;10.70;;;;;;;19.22;67.43;99278.97;5547089;32;33994;-87
2023/04/24 12:00:30;;;;;;;15.43;9.98;;;;;;;19.21;66.47;99279.16;5547173;32;33860;-87
2023/04/24 12:03:34;;;;;;;13.27;10.43;;;;;;;19.92;63.65;99276.25;5549676;32;33775;-87
2023/04/24 12:06:40;;;;;;;14.98;11.00;;;;;;;20.18;61.77;99273.44;5545887;32;33890;-89
2023/04/24 12:09:45;;;;;;;14.95;11.68;;;;;;;19.90;64.44;99260.25;5547572;32;34348;-86
2023/04/24 12:12:51;;;;;;;16.42;10.88;;;;;;;19.82;64.32;99260.25;5548565;32;33957;-86
2023/04/24 12:15:57;;;;;;;20.88;10.98;;;;;;;19.58;65.91;99256.47;5548960;32;34801;-88
2023/04/24 12:19:02;;;;;;;13.40;10.68;;;;;;;19.37;66.82;99256.88;5546097;32;33500;-87
2023/04/24 12:22:06;;;;;;;17.70;11.27;;;;;;;19.19;68.32;99243.50;5547599;32;33838;-87
2023/04/24 12:25:10;;;;;;;16.62;11.50;;;;;;;18.65;70.08;99248.03;5560877;32;33860;-87
2023/04/24 12:28:14;;;;;;;17.52;11.90;;;;;;;18.22;72.31;99239.81;5552917;32;34684;-90
2023/04/24 12:31:21;;;;;;;15.27;10.80;;;;;;;18.11;72.49;99234.66;5548223;32;34189;-87
2023/04/24 12:34:25;;;;;;;16.98;10.57;;;;;;;17.83;72.89;99234.69;5552707;32;35095;-85
2023/04/24 12:37:33;;;;;;;13.45;10.05;;;;;;;17.77;74.09;99226.25;5554094;32;33909;-86
2023/04/24 12:40:42;;;;;;;13.85;10.02;;;;;;;17.73;74.46;99224.88;5558058;32;35209;-86
2023/04/24 12:43:52;;;;;;;11.30;9.52;;;;;;;17.68;73.96;99226.31;5556529;32;33788;-86
2023/04/24 12:46:58;;;;;;;15.90;11.13;;;;;;;17.72;74.36;99220.50;5559676;32;34232;-86
2023/04/24 12:50:05;;;;;;;15.95;11.43;;;;;;;17.69;75.48;99220.81;5550949;32;33708;-86
2023/04/24 12:53:10;;;;;;;16.15;10.90;;;;;;;17.34;79.28;99217.03;5550480;32;34559;-86
2023/04/24 12:56:13;;;;;;;16.58;10.90;;;;;;;16.99;85.98;99216.72;5534625;32;33823;-85
2023/04/24 12:59:18;;;;;;;18.08;10.80;;;;;;;16.94;86.15;99210.97;5547681;32;34611;-86
2023/04/24 13:02:28;;;;;;;14.90;11.23;;;;;;;16.54;95.88;99203.06;5554593;32;34111;-86
2023/04/24 13:05:34;;;;;;;17.48;11.45;;;;;;;16.60;92.38;99204.28;5551633;32;33919;-86
2023/04/24 13:08:40;;;;;;;14.95;11.02;;;;;;;16.24;99.18;99196.88;5551133;32;34004;-85
2023/04/24 13:11:46;;;;;;;15.52;9.98;;;;;;;16.25;100.00;99198.56;5552551;32;33935;-87
2023/04/24 13:14:50;;;;;;;14.02;10.85;;;;;;;16.07;100.00;99198.47;5545954;32;33608;-86
2023/04/24 13:17:56;;;;;;;13.00;9.50;;;;;;;15.93;100.00;99186.34;5536619;32;33997;-86
2023/04/24 13:21:02;;;;;;;13.93;9.75;;;;;;;16.06;100.00;99182.53;5535508;32;34069;-86
2023/04/24 13:24:10;;;;;;;11.68;8.40;;;;;;;16.10;100.00;99178.59;5544270;32;33268;-86
2023/04/24 13:27:18;;;;;;;15.60;8.23;;;;;;;16.35;97.99;99179.84;5532994;32;33791;-86
2023/04/24 13:30:24;;;;;;;11.57;7.57;;;;;;;16.43;98.97;99165.75;5541280;32;35301;-86
2023/04/24 13:33:30;;;;;;;10.88;6.68;;;;;;;16.49;96.79;99159.81;5552196;32;34114;-85
2023/04/24 13:36:37;;;;;;;12.05;6.35;;;;;;;16.36;98.10;99157.47;5552643;32;34533;-86
2023/04/24 13:39:42;;;;;;;11.10;5.75;;;;;;;16.37;98.55;99152.94;5551384;32;33901;-87
2023/04/24 13:42:49;;;;;;;11.18;5.90;;;;;;;16.08;100.00;99146.66;5549981;32;34109;-86
2023/04/24 13:45:54;;;;;;;8.77;6.10;;;;;;;16.02;100.00;99163.25;5551758;32;34070;-87
2023/04/24 13:49:00;;;;;;;12.25;5.87;;;;;;;16.03;100.00;99160.44;5553572;32;33815;-90
2023/04/24 13:52:05;;;;;;;14.40;5.75;;;;;;;15.88;100.00;99172.50;5548385;32;34088;-91
2023/04/24 13:55:09;;;;;;;11.52;5.53;;;;;;;15.79;100.00;99174.19;5538647;32;33778;-87
2023/04/24 13:58:12;;;;;;;10.10;6.75;;;;;;;15.56;100.00;99173.62;5552184;32;33895;-86
2023/04/24 14:01:17;;;;;;;10.50;6.62;;;;;;;15.13;100.00;99189.81;5555180;32;33859;-86
2023/04/24 14:04:23;;;;;;;9.60;7.20;;;;;;;14.67;100.00;99194.63;5558042;32;34977;-86
2023/04/24 14:07:30;;;;;;;10.68;8.10;;;;;;;14.40;100.00;99207.53;5554696;32;34754;-86
2023/04/24 14:10:37;;;;;;;10.02;8.20;;;;;;;13.94;100.00;99209.56;5561250;32;34077;-86
2023/04/24 14:13:45;;;;;;;12.10;8.63;;;;;;;13.82;100.00;99211.41;5549210;32;34154;-86
2023/04/24 14:16:52;;;;;;;13.77;8.98;;;;;;;13.51;100.00;99218.38;5541634;32;32687;-85
2023/04/24 14:20:00;;;;;;;17.23;8.98;;;;;;;13.35;100.00;99227.59;5551217;32;34068;-86
2023/04/24 14:23:06;;;;;;;14.70;9.07;;;;;;;13.40;100.00;99229.88;5557685;32;34196;-87
2023/04/24 14:26:14;;;;;;;11.68;9.38;;;;;;;13.19;100.00;99220.81;5548842;32;33544;-86
2023/04/24 14:29:21;;;;;;;15.68;10.05;;;;;;;13.19;100.00;99228.81;5552219;32;33663;-86
2023/04/24 14:32:33;;;;;;;13.43;9.70;;;;;;;13.28;100.00;99229.88;5550402;32;33773;-86
2023/04/24 14:35:43;;;;;;;13.38;9.73;;;;;;;13.26;100.00;99225.66;5548988;32;34755;-86
2023/04/24 14:38:50;;;;;;;13.30;9.27;;;;;;;13.31;100.00;99234.97;5552110;32;33760;-86
2023/04/24 14:42:01;;;;;;;12.90;9.68;;;;;;;13.40;100.00;99232.53;5549018;32;34185;-86
2023/04/24 14:45:08;;;;;;;15.15;10.25;;;;;;;13.51;100.00;99231.72;5548717;32;34862;-86
2023/04/24 14:48:17;;;;;;;14.80;10.80;;;;;;;13.71;100.00;99232.78;5549319;32;33862;-85
2023/04/24 14:51:27;;;;;;;15.23;11.05;;;;;;;13.78;100.00;99233.97;5549258;32;34245;-86
2023/04/24 14:54:35;;;;;;;14.52;11.32;;;;;;;13.82;100.00;99237.22;5550326;32;34009;-86
2023/04/24 14:57:42;;;;;;;12.73;10.30;;;;;;;13.92;100.00;99235.50;5548487;32;34672;-90
2023/04/24 15:00:51;;;;;;;14.02;11.30;;;;;;;14.05;100.00;99238.00;5538712;32;34223;-90
2023/04/24 15:03:56;;;;;;;16.52;12.48;;;;;;;14.09;100.00;99243.94;5535202;32;34457;-87
2023/04/24 15:07:05;;;;;;;17.73;11.27;;;;;;;14.10;100.00;99240.28;5547766;32;33941;-86
2023/04/24 15:10:11;;;;;;;16.15;9.88;;;;;;;14.01;100.00;99233.91;5550880;32;33895;-86
2023/04/24 15:13:18;;;;;;;13.52;11.50;;;;;;;14.02;100.00;99236.44;5551919;32;34153;-86
2023/04/24 15:16:25;;;;;;;14.07;10.93;;;;;;;13.94;100.00;99227.38;5551905;32;33597;-86
2023/04/24 15:19:34;;;;;;;12.90;10.27;;;;;;;13.90;100.00;99228.59;5551112;32;34747;-86
2023/04/24 15:22:41;;;;;;;13.07;11.12;;;;;;;14.00;100.00;99221.53;5547464;32;34477;-86
2023/04/24 15:25:50;;;;;;;10.70;9.60;;;;;;;14.21;100.00;99224.25;5547873;32;33952;-86
2023/04/24 15:28:58;;;;;;;13.25;10.20;;;;;;;14.22;100.00;99223.25;5547769;32;33612;-86
2023/04/24 15:32:07;;;;;;;11.18;8.80;;;;;;;14.34;100.00;99225.88;5548806;32;34657;-86
2023/04/24 15:35:17;;;;;;;9.27;8.25;;;;;;;14.33;100.00;99221.53;5548607;32;33916;-86
2023/04/24 15:38:24;;;;;;;9.75;7.50;;;;;;;14.19;100.00;99233.34;5549001;32;34601;-86
2023/04/24 15:41:33;;;;;;;10.50;8.20;;;;;;;14.06;100.00;99234.38;5548037;32;34378;-86
2023/04/24 15:44:41;;;;;;;7.68;6.95;;;;;;;14.22;100.00;99233.94;5548124;32;33895;-86
2023/04/24 15:47:50;;;;;;;7.45;6.72;;;;;;;14.17;100.00;99240.63;5548633;32;33861;-86
2023/04/24 15:51:00;;;;;;;7.53;6.40;;;;;;;14.22;100.00;99238.41;5551901;32;33752;-86
2023/04/24 15:54:07;;;;;;;9.10;7.25;;;;;;;14.17;100.00;99236.13;5553524;32;33992;-86
2023/04/24 15:57:16;;;;;;;7.55;6.07;;;;;;;13.91;100.00;99233.81;5548486;32;34058;-86
